• Join FlightAware (Why Join?)
  • Login
  • US Flag 
10:19PM EDT


 

Airport Tracker/Info


-or-


 

Live Flight TrackerFlight Track Log ✈ AAL1144 ✈ 06-May-2013 ✈ KSNA - KORD

Flight Track Log - Related Links

Times and Time Zones

All times are in EDT time to prevent confusion due to time zone crossing. See the AAL1144 flight status page for this flight to view local times or setup timezone preferences in your user account.

Time Position Orientation Groundspeed Altitude Reporting Facility
EDT Latitude Longitude Course Direction KTS MPH feet Rate Location/Type
08:00PM 33.6470 -117.8870 205° Southwest 166 191 1,800  Level FlightAware
08:01PM 33.6260 -117.8920 191° South 196 226 2,700 2,160 Climbing FlightAware
08:01PM 33.5950 -117.8970 188° South 238 274 3,800 2,400 Climbing FlightAware
08:02PM 33.5490 -117.8890 172° South 275 316 5,500 3,060 Climbing FlightAware
08:02PM 33.5170 -117.8650 148° Southeast 281 323 7,400 3,900 Climbing FlightAware
08:03PM 33.5080 -117.8520 130° Southeast 287 330 8,100 4,080 Climbing FlightAware
08:03PM 33.5010 -117.8280 109° East 298 343 9,100 3,300 Climbing FlightAware
08:03PM 33.5070 -117.7800 81° East 316 364 10,600 2,100 Climbing FlightAware
08:04PM 33.5270 -117.7050 72° East 375 432 11,600 2,040 Climbing FlightAware
08:05PM 33.5510 -117.6110 73° East 400 460 13,500 1,860 Climbing FlightAware
08:05PM 33.5740 -117.5230 73° East 413 475 14,300 540 Climbing FlightAware
08:06PM 33.5860 -117.4260 82° East 410 472 14,300 720 Level FlightAware
08:07PM 33.5900 -117.3350 87° East 419 482 15,400 2,400 Climbing FlightAware
08:08PM 33.5930 -117.2450 88° East 422 486 17,500 2,640 Climbing FlightAware
08:08PM 33.5960 -117.1290 88° East 451 519 19,200 2,280 Climbing FlightAware
08:09PM 33.5990 -117.0290 88° East 463 533 20,800 2,460 Climbing FlightAware
08:10PM 33.6030 -116.9130 88° East 471 542 22,700 2,220 Climbing FlightAware
08:10PM 33.6070 -116.8090 87° East 482 555 24,000 1,680 Climbing FlightAware
08:11PM 33.6110 -116.7000 87° East 494 568 25,000 660 Climbing FlightAware
08:12PM 33.6150 -116.5740 88° East 492 566 25,000  Level FlightAware
08:12PM 33.6170 -116.5270 87° East 492 566 25,000  Level FlightAware
08:13PM 33.6219 -116.3592 70° East 496 571 25,000  Level Los Angeles Center
08:13PM 33.6230 -116.3950 87° East 492 566 25,000  Level FlightAware
08:14PM 33.6270 -116.3020 87° East 492 566 25,000 60 Level FlightAware
08:14PM 33.6269 -116.1942 88° East 495 570 25,100  Climbing Los Angeles Center
08:15PM 33.6310 -116.2090 87° East 492 566 25,000 -120 Descending FlightAware
08:15PM 33.6350 -116.1160 87° East 492 566 25,000 2,820 Level FlightAware
08:15PM 33.6683 -116.0325 73° East 501 577 26,900  Climbing Los Angeles Center
08:16PM 33.6390 -116.0240 87° East 492 566 25,000 1,920 Descending FlightAware
08:16PM 33.7208 -115.8739 68° East 509 586 28,900 2,820 Climbing Los Angeles Center
08:17PM 33.7728 -115.7150 68° East 511 588 29,000 1,080 Climbing Los Angeles Center
08:18PM 33.8231 -115.5550 69° East 511 588 31,200 960 Climbing Los Angeles Center
08:19PM 33.7798 -115.6780 70° East  Level FlightAware Approximate
08:25PM 34.1650 -114.4580 69° East 501 577 37,000  Level FlightAware
08:26PM 34.2090 -114.3020 71° East 499 574 37,000  Level FlightAware
08:27PM 34.2530 -114.1450 71° East 498 573 37,000  Level FlightAware
08:28PM 34.2840 -114.0320 72° East 497 572 37,000  Level FlightAware
08:29PM 34.3100 -113.9380 71° East 497 572 37,000  Level FlightAware
08:29PM 34.3450 -113.8110 72° East 496 571 37,000  Level FlightAware
08:30PM 34.3800 -113.6850 71° East 497 572 37,000  Level FlightAware
08:31PM 34.4120 -113.5690 71° East 496 571 37,000  Level FlightAware
08:31PM 34.4410 -113.4620 72° East 497 572 37,000  Level FlightAware
08:32PM 34.4700 -113.3560 72° East 497 572 37,000  Level FlightAware
08:33PM 34.5020 -113.2380 72° East 498 573 37,000  Level FlightAware
08:33PM 34.5300 -113.1330 72° East 498 573 37,000  Level FlightAware
08:34PM 34.5580 -113.0270 72° East 498 573 37,000  Level FlightAware
08:35PM 34.5900 -112.9050 72° East 497 572 37,000  Level FlightAware
08:36PM 34.6190 -112.7990 72° East 496 571 37,000  Level FlightAware
08:36PM 34.6490 -112.6830 73° East 496 571 37,000  Level FlightAware
08:37PM 34.6780 -112.5750 72° East 496 571 37,000  Level FlightAware
08:38PM 34.7090 -112.4550 73° East 496 571 37,000  Level FlightAware
08:38PM 34.7330 -112.3520 74° East 497 572 37,000  Level FlightAware
08:39PM 34.7580 -112.2390 75° East 493 567 37,000  Level FlightAware
08:40PM 34.7850 -112.1200 75° East 496 571 37,000  Level FlightAware
08:40PM 34.8090 -112.0120 75° East 498 573 37,000  Level FlightAware
08:41PM 34.8380 -111.8890 74° East 497 572 37,000  Level FlightAware
08:42PM 34.8620 -111.7810 75° East 498 573 37,000  Level FlightAware
08:43PM 34.8860 -111.6750 75° East 499 574 37,000  Level FlightAware
08:43PM 34.9130 -111.5560 75° East 498 573 37,000  Level FlightAware
08:44PM 34.9370 -111.4450 75° East 495 570 37,000  Level FlightAware
08:45PM 34.9640 -111.3230 75° East 497 572 37,000  Level FlightAware
08:45PM 34.9880 -111.2130 75° East 497 572 37,000  Level FlightAware
08:46PM 35.0110 -111.1070 75° East 494 568 37,000  Level FlightAware
08:47PM 35.0370 -110.9870 75° East 494 568 37,000  Level FlightAware
08:47PM 35.0610 -110.8800 75° East 496 571 37,000  Level FlightAware
08:48PM 35.0870 -110.7570 75° East 498 573 37,000  Level FlightAware
08:49PM 35.1100 -110.6500 75° East 499 574 37,000  Level FlightAware
08:50PM 35.1330 -110.5410 76° East 499 574 37,000  Level FlightAware
08:50PM 35.1590 -110.4180 75° East 499 574 37,000  Level FlightAware
08:51PM 35.1830 -110.3090 75° East 499 574 37,000  Level FlightAware
08:52PM 35.2080 -110.1870 76° East 497 572 37,000  Level FlightAware
08:52PM 35.2300 -110.0850 75° East 498 573 37,000  Level FlightAware
08:53PM 35.2550 -109.9660 76° East 496 571 37,000  Level FlightAware
08:54PM 35.2790 -109.8460 76° East 495 570 37,000  Level FlightAware
08:54PM 35.3010 -109.7390 76° East 495 570 37,000  Level FlightAware
08:55PM 35.3240 -109.6290 76° East 494 568 37,000  Level FlightAware
08:56PM 35.3480 -109.5080 76° East 492 566 37,000  Level FlightAware
08:57PM 35.3690 -109.4060 76° East 491 565 37,000  Level FlightAware
08:57PM 35.3950 -109.2770 76° East 490 564 37,000  Level FlightAware
08:58PM 35.4170 -109.1680 76° East 490 564 37,000  Level FlightAware
08:59PM 35.4370 -109.0710 76° East 490 564 37,000  Level FlightAware
09:00PM 35.4690 -108.9120 76° East 488 562 37,000  Level FlightAware
09:00PM 35.4870 -108.8200 76° East 488 562 37,000  Level FlightAware
09:01PM 35.5060 -108.7290 76° East 488 562 37,000  Level FlightAware
09:02PM 35.5240 -108.6370 76° East 488 562 37,000  Level FlightAware
09:02PM 35.5850 -108.4730 65° Northeast 478 550 37,000  Level FlightAware
09:03PM 35.6160 -108.3580 72° East 478 550 37,000  Level FlightAware
09:04PM 35.6420 -108.2570 72° East 478 550 37,000  Level FlightAware
09:04PM 35.6700 -108.1530 72° East 477 549 37,000  Level FlightAware
09:05PM 35.7010 -108.0390 71° East 476 548 37,000  Level FlightAware
09:06PM 35.7290 -107.9330 72° East 474 545 37,000  Level FlightAware
09:07PM 35.7530 -107.8430 72° East 472 543 37,000  Level FlightAware
09:07PM 35.7850 -107.7180 72° East 470 541 37,000  Level FlightAware
09:08PM 35.8120 -107.6170 72° East 466 536 37,000  Level FlightAware
09:09PM 35.8420 -107.5020 72° East 464 534 37,000  Level FlightAware
09:09PM 35.8680 -107.4000 73° East 465 535 37,000  Level FlightAware
09:10PM 35.8960 -107.2910 72° East 468 539 37,000  Level FlightAware
09:11PM 35.9230 -107.1860 72° East 471 542 37,000  Level FlightAware
09:12PM 35.9530 -107.0690 72° East 473 544 37,000  Level FlightAware
09:12PM 35.9780 -106.9740 72° East 471 542 37,000  Level FlightAware
09:13PM 36.0060 -106.8640 73° East 471 542 37,000  Level FlightAware
09:14PM 36.0330 -106.7580 72° East 473 544 37,000  Level FlightAware
09:15PM 36.0760 -106.5830 73° East 482 555 37,000  Level FlightAware
09:15PM 36.1020 -106.4830 72° East 482 555 37,000  Level FlightAware
09:16PM 36.1340 -106.3510 73° East 483 556 37,000  Level FlightAware
09:17PM 36.1560 -106.2610 73° East 483 556 37,000  Level FlightAware
09:18PM 36.1880 -106.1370 72° East 484 557 37,000  Level FlightAware
09:18PM 36.2120 -106.0480 71° East 484 557 37,000  Level FlightAware
09:19PM 36.2350 -105.9580 72° East 484 557 37,000  Level FlightAware
09:20PM 36.2650 -105.8460 72° East 484 557 37,000  Level FlightAware
09:20PM 36.2880 -105.7560 72° East 484 557 37,000  Level FlightAware
09:21PM 36.3120 -105.6660 72° East 484 557 37,000  Level FlightAware
09:22PM 36.3350 -105.5760 72° East 484 557 37,000  Level FlightAware
09:22PM 36.3590 -105.4860 72° East 484 557 37,000  Level FlightAware
09:23PM 36.3880 -105.3740 72° East 484 557 37,000  Level FlightAware
09:24PM 36.4120 -105.2840 72° East 484 557 37,000  Level FlightAware
09:25PM 36.4350 -105.1940 72° East 484 557 37,000  Level FlightAware
09:25PM 36.4590 -105.1040 72° East 484 557 37,000  Level FlightAware
09:26PM 36.4820 -105.0140 72° East 484 557 37,000  Level FlightAware
09:27PM 36.5120 -104.9010 72° East 484 557 37,000  Level FlightAware
09:27PM 36.5800 -104.6311 72° East 468 539 37,000  Level Kansas City Center
09:28PM 36.6333 -104.4839 66° East 467 537 37,000  Level Kansas City Center
09:29PM 36.6875 -104.3397 65° Northeast 463 533 37,000  Level Kansas City Center
09:30PM 36.7422 -104.1850 66° East 459 528 37,000  Level Albuquerque Center
09:31PM 36.7919 -104.0478 66° East 457 526 37,000  Level Albuquerque Center
09:37PM 37.1120 -103.1390 66° East 463 533 37,000  Level FlightAware ADS-B
09:38PM 37.1388 -103.0620 66° East 464 534 37,000  Level FlightAware ADS-B
09:39PM 37.1667 -102.9820 66° East 464 534 37,000  Level FlightAware ADS-B
09:39PM 37.1935 -102.9040 67° East 463 533 37,000  Level FlightAware ADS-B
09:40PM 37.2200 -102.8280 66° East 462 532 37,000  Level FlightAware ADS-B
09:40PM 37.2495 -102.7420 67° East 462 532 37,000  Level FlightAware ADS-B
09:41PM 37.2761 -102.6650 67° East 462 532 37,000  Level FlightAware ADS-B
09:41PM 37.3013 -102.5910 67° East 462 532 37,000  Level FlightAware ADS-B
09:42PM 37.3175 -102.5442 67° East 461 531 37,000  Level Kansas City Center
09:43PM 37.3656 -102.4025 67° East 461 531 37,000  Level Kansas City Center
09:44PM 37.4219 -102.2372 67° East 460 529 37,000  Level Albuquerque Center
09:45PM 37.4697 -102.0958 67° East 460 529 37,000  Level Albuquerque Center
09:46PM 37.5172 -101.9533 67° East 460 529 37,000  Level Albuquerque Center
09:47PM 37.5722 -101.7878 67° East 459 528 37,000  Level Kansas City Center
09:48PM 37.6197 -101.6467 67° East 457 526 37,000  Level Kansas City Center
09:49PM 37.6742 -101.4806 67° East 458 527 37,000  Level Kansas City Center
09:50PM 37.7206 -101.3386 68° East 456 525 37,000  Level Kansas City Center
09:51PM 37.7672 -101.1947 68° East 458 527 37,000  Level Kansas City Center
09:52PM 37.8222 -101.0267 67° East 459 528 37,000  Level Kansas City Center
09:53PM 37.8697 -100.8806 68° East 461 531 37,000  Level Kansas City Center
09:54PM 37.9158 -100.7356 68° East 460 529 37,000  Level Kansas City Center
09:55PM 37.9719 -100.5689 67° East 458 527 37,000  Level Kansas City Center
09:56PM 38.0211 -100.4272 66° East 458 527 37,000  Level Kansas City Center
09:57PM 38.0764 -100.2614 67° East 457 526 37,000  Level Kansas City Center
09:58PM 38.1236 -100.1203 67° East 455 524 37,000  Level Kansas City Center
09:59PM 38.1706 -99.9794 67° East 454 522 37,000  Level Kansas City Center
10:01PM 38.2706 -99.6758 67° East 450 518 37,000  Level Kansas City Center
10:02PM 38.3169 -99.5364 67° East 448 516 37,000  Level Kansas City Center
10:03PM 38.3647 -99.3925 67° East 446 513 37,000  Level Kansas City Center
10:04PM 38.4125 -99.2447 68° East 447 514 37,000  Level Kansas City Center
10:05PM 38.4614 -99.0972 67° East 450 518 37,000  Level Kansas City Center
10:06PM 38.5089 -98.9483 68° East 451 519 37,000  Level Kansas City Center
10:07PM 38.5692 -98.7661 67° East 461 531 37,000  Level Kansas City Center
10:08PM 38.6158 -98.6147 68° East 460 529 37,000  Level Kansas City Center
10:09PM 38.6653 -98.4628 67° East 461 531 37,000  Level Kansas City Center
10:10PM 38.7131 -98.3089 68° East 464 534 37,000  Level Kansas City Center
10:11PM 38.7606 -98.1556 68° East 464 534 37,000  Level Kansas City Center
10:12PM 38.8092 -98.0025 68° East 464 534 37,000  Level Kansas City Center
10:13PM 38.8556 -97.8503 69° East 460 529 37,000  Level Kansas City Center
10:14PM 38.9022 -97.7017 68° East 455 524 37,000  Level Kansas City Center
10:15PM 38.9531 -97.5294 69° East 459 528 37,000  Level Kansas City Center
10:16PM 38.9897 -97.3781 73° East 463 533 37,000  Level Kansas City Center
10:17PM 39.0292 -97.2308 71° East 457 526 37,000  Level Kansas City Center
10:18PM 39.0764 -97.0586 70° East 457 526 37,000  Level Kansas City Center
10:21PM 39.1972 -96.5861 72° East 456 525 37,000  Level Kansas City Center
10:22PM 39.2328 -96.4378 73° East 453 521 37,000  Level Kansas City Center
10:23PM 39.2775 -96.2686 71° East 456 525 37,000  Level Kansas City Center
10:24PM 39.2650 -96.3150 70° East 455 524 37,000  Level FlightAware
10:27PM 39.3464 -95.9339 72° East  Level FlightAware Approximate
10:29PM 39.4680 -95.4970 71° East 459 528 37,000  Level FlightAware
10:31PM 39.5400 -95.2010 72° East 456 525 37,000  Level FlightAware
10:33PM 39.5940 -94.9750 73° East 454 522 37,000  Level FlightAware
10:34PM 39.6760 -94.6300 73° East 447 514 37,000  Level FlightAware
10:35PM 39.7040 -94.5130 73° East 446 513 37,000  Level FlightAware
10:35PM 39.7280 -94.4100 73° East 446 513 37,000  Level FlightAware
10:36PM 39.7510 -94.3100 73° East 444 511 37,000  Level FlightAware
10:37PM 39.7780 -94.1960 73° East 444 511 37,000  Level FlightAware
10:37PM 39.8010 -94.0940 74° East 443 510 37,000  Level FlightAware
10:38PM 39.8240 -93.9940 73° East 443 510 37,000  Level FlightAware
10:39PM 39.8510 -93.8750 74° East 443 510 37,000  Level FlightAware
10:39PM 39.8740 -93.7730 74° East 444 511 37,000  Level FlightAware
10:40PM 39.9000 -93.6610 73° East 445 512 37,000  Level FlightAware
10:41PM 39.9230 -93.5590 74° East 445 512 37,000  Level FlightAware
10:42PM 39.9510 -93.4390 73° East 445 512 37,000  Level FlightAware
10:42PM 39.9830 -93.3430 66° East 446 513 37,000  Level FlightAware
10:43PM 40.0160 -93.2460 66° East 446 513 37,000  Level FlightAware
10:44PM 40.0520 -93.1370 67° East 448 516 37,000  Level FlightAware
10:44PM 40.0860 -93.0360 66° East 448 516 37,000  Level FlightAware
10:45PM 40.1180 -92.9390 67° East 448 516 37,000  Level FlightAware
10:46PM 40.1570 -92.8200 67° East 450 518 37,000  Level FlightAware
10:46PM 40.1890 -92.7230 67° East 451 519 37,000  Level FlightAware
10:47PM 40.2260 -92.6100 67° East 451 519 37,000  Level FlightAware
10:48PM 40.2570 -92.5140 67° East 450 518 37,000  Level FlightAware
10:49PM 40.2890 -92.4160 67° East 449 517 37,000  Level FlightAware
10:49PM 40.3230 -92.3120 67° East 449 517 37,000  Level FlightAware
10:50PM 40.3600 -92.1960 67° East 447 514 37,000  Level FlightAware
10:51PM 40.3940 -92.0900 67° East 441 507 37,000  Level FlightAware
10:51PM 40.4260 -91.9910 67° East 440 506 37,000  Level FlightAware
10:52PM 40.4570 -91.8910 68° East 438 504 37,000  Level FlightAware
10:53PM 40.4820 -91.8120 67° East 438 504 37,000  Level FlightAware
10:53PM 40.5250 -91.6790 67° East 438 504 37,000 -780 Level FlightAware
10:54PM 40.5590 -91.5720 67° East 427 491 35,800 -2,160 Descending FlightAware
10:55PM 40.5870 -91.4790 68° East 430 495 34,000 -2,100 Descending FlightAware
10:56PM 40.6180 -91.3810 67° East 429 494 33,000 -720 Descending FlightAware
10:56PM 40.6510 -91.2780 67° East 431 496 33,000  Level FlightAware
10:57PM 40.6840 -91.1710 68° East 435 501 33,000  Level FlightAware
10:58PM 40.7170 -91.0630 68° East 434 499 33,000  Level FlightAware
10:58PM 40.7470 -90.9670 68° East 434 499 33,000  Level FlightAware
10:59PM 40.7770 -90.8670 68° East 433 498 33,000  Level FlightAware
11:00PM 40.8100 -90.7590 68° East 431 496 33,000  Level FlightAware
11:00PM 40.8400 -90.6630 68° East 415 478 33,000 -240 Level FlightAware
11:01PM 40.8670 -90.5730 68° East 423 487 32,700 -900 Descending FlightAware
11:02PM 40.9010 -90.4610 68° East 428 493 31,800 -1,500 Descending FlightAware
11:03PM 40.9310 -90.3600 69° East 432 497 30,600 -1,860 Descending FlightAware
11:03PM 40.9640 -90.2490 68° East 437 503 29,200 -1,860 Descending FlightAware
11:04PM 40.9940 -90.1480 68° East 437 503 28,000 -1,800 Descending FlightAware
11:05PM 41.0260 -90.0420 68° East 444 511 26,700 -1,800 Descending FlightAware
11:05PM 41.0570 -89.9360 69° East 449 517 25,500 -1,920 Descending FlightAware
11:06PM 41.0870 -89.8370 68° East 441 507 24,200 -1,980 Descending FlightAware
11:07PM 41.1200 -89.7220 69° East 430 495 22,700 -1,920 Descending FlightAware
11:07PM 41.1490 -89.6240 69° East 423 487 21,500 -1,800 Descending FlightAware
11:08PM 41.1830 -89.5310 64° Northeast 412 474 20,300 -1,800 Descending FlightAware
11:09PM 41.2220 -89.4340 62° Northeast 404 465 19,000 -1,740 Descending FlightAware
11:10PM 41.2570 -89.3470 62° Northeast 399 459 17,900 -1,740 Descending FlightAware
11:10PM 41.2970 -89.2490 61° Northeast 394 453 16,600 -1,800 Descending FlightAware
11:11PM 41.3310 -89.1650 62° Northeast 386 444 15,400 -1,740 Descending FlightAware
11:12PM 41.3670 -89.0730 62° Northeast 385 443 14,200 -1,740 Descending FlightAware
11:12PM 41.4000 -88.9900 62° Northeast 369 425 13,000 -1,680 Descending FlightAware
11:13PM 41.4320 -88.9120 61° Northeast 355 409 12,000 -1,500 Descending FlightAware
11:14PM 41.4660 -88.8250 62° Northeast 330 380 10,900 -780 Descending FlightAware
11:14PM 41.4930 -88.7580 62° Northeast 287 330 10,900  Level FlightAware
11:15PM 41.5170 -88.6970 62° Northeast 280 322 10,900  Level FlightAware
11:16PM 41.5430 -88.6300 63° Northeast 279 321 10,900  Level FlightAware
11:17PM 41.5670 -88.5690 62° Northeast 280 322 10,900  Level FlightAware
11:17PM 41.5950 -88.4990 62° Northeast 278 320 10,900 -360 Level FlightAware
11:18PM 41.6280 -88.4450 51° Northeast 281 323 10,400 -1,080 Descending FlightAware
11:18PM 41.6610 -88.4220 28° Northeast 278 320 9,700 -1,500 Descending FlightAware
11:19PM 41.6780 -88.4110 26° Northeast 279 321 9,300 -1,680 Descending FlightAware
11:19PM 41.7070 -88.3910 27° Northeast 276 318 8,600 -1,500 Descending FlightAware
11:19PM 41.7230 -88.3800 27° Northeast 276 318 8,300 -1,620 Descending FlightAware
11:20PM 41.7580 -88.3570 26° Northeast 275 316 7,400 -1,800 Descending FlightAware
11:20PM 41.7700 -88.3490 26° Northeast 278 320 7,100 -1,680 Descending FlightAware
11:21PM 41.8040 -88.3260 27° Northeast 275 316 6,300 -1,500 Descending FlightAware
11:21PM 41.8210 -88.3150 26° Northeast 276 318 6,000 -1,500 Descending FlightAware
11:21PM 41.8510 -88.2950 26° Northeast 276 318 5,300 -1,560 Descending FlightAware
11:22PM 41.8830 -88.2730 27° Northeast 275 316 4,600 -1,140 Descending FlightAware
11:22PM 41.9120 -88.2540 26° Northeast 261 300 4,300 -720 Descending FlightAware
11:23PM 41.9440 -88.2220 37° Northeast 240 276 3,900 -420 Descending FlightAware
11:23PM 41.9540 -88.1910 67° East 229 264 3,900 -240 Level FlightAware
11:24PM 41.9670 -88.1520 66° East 217 250 3,700 -720 Descending FlightAware
11:24PM 41.9690 -88.1330 82° East 212 244 3,400 -1,080 Descending FlightAware
11:24PM 41.9680 -88.0890 92° East 187 215 2,800 -960 Descending FlightAware
11:25PM 41.9690 -88.0580 88° East 157 181 2,400 -840 Descending FlightAware
11:25PM 41.9690 -88.0310 90° East 141 162 2,000 -780 Descending FlightAware
11:26PM 41.9690 -88.0130 90° East 137 158 1,700 -720 Descending FlightAware
11:27PM 41.9690 -87.9730 90° East 129 148 1,200 -720 Descending FlightAware
11:27PM 41.9690 -87.9530 90° East 138 159 900 -840 Descending FlightAware
11:27PM 41.9690 -87.9320 90° East 148 170 600 -900 Descending FlightAware